Time;durP1;ratioP1;P1;durP2;ratioP2;P2;SDS_P1;SDS_P2;PMS_P1;PMS_P2;Temp;Humidity;BMP_temperature;BMP_pressure;BME280_temperature;BME280_humidity;BME280_pressure;Samples;Min_cycle;Max_cycle;Signal;HPM_P1;HPM_P2
2021/12/21 00:00:37;;;;;;;17.13;8.00;;;3.50;99.90;;;;;;4999504;28;20243;-47
2021/12/21 00:03:04;;;;;;;15.53;7.33;;;3.50;99.90;;;;;;4991780;28;20443;-50
2021/12/21 00:05:30;;;;;;;16.03;7.97;;;3.40;99.90;;;;;;4977720;28;20432;-48
2021/12/21 00:08:00;;;;;;;13.57;7.50;;;3.40;99.90;;;;;;4992720;28;20462;-48
2021/12/21 00:10:31;;;;;;;14.57;7.90;;;3.40;99.90;;;;;;5003942;28;20432;-48
2021/12/21 00:23:32;;;;;;;14.13;7.10;;;3.30;99.90;;;;;;5001005;28;20436;-47
2021/12/21 00:26:03;;;;;;;12.77;6.77;;;3.40;99.90;;;;;;4999652;28;20818;-45
2021/12/21 00:28:37;;;;;;;12.50;7.40;;;3.30;99.90;;;;;;5002582;28;20478;-52
2021/12/21 00:31:03;;;;;;;14.90;7.40;;;3.20;99.90;;;;;;4997762;28;20532;-48
2021/12/21 00:33:29;;;;;;;18.13;7.33;;;3.10;99.90;;;;;;5000306;28;20446;-51
2021/12/21 00:35:54;;;;;;;12.73;7.80;;;3.10;99.90;;;;;;4999756;28;20960;-45
2021/12/21 00:38:20;;;;;;;17.10;7.67;;;2.90;99.90;;;;;;5003365;28;20222;-51
2021/12/21 00:40:46;;;;;;;15.30;8.10;;;3.00;99.90;;;;;;5006405;28;20189;-48
2021/12/21 00:43:11;;;;;;;11.20;7.47;;;3.00;99.90;;;;;;5001303;28;20197;-52
2021/12/21 00:45:37;;;;;;;15.37;7.97;;;2.90;99.90;;;;;;5002313;28;20611;-48
2021/12/21 00:48:03;;;;;;;10.63;7.17;;;2.80;99.90;;;;;;5003642;28;20209;-47
2021/12/21 00:50:29;;;;;;;10.83;7.17;;;2.90;99.90;;;;;;5001731;28;20235;-48
2021/12/21 00:52:55;;;;;;;20.00;7.03;;;3.00;99.90;;;;;;5004393;28;20434;-49
2021/12/21 00:55:22;;;;;;;12.10;6.90;;;2.90;99.90;;;;;;4999623;28;20481;-47
2021/12/21 00:57:48;;;;;;;9.43;6.57;;;2.70;99.90;;;;;;5004691;28;20195;-52
2021/12/21 01:00:16;;;;;;;16.63;7.33;;;2.70;99.90;;;;;;4986870;28;20541;-50
2021/12/21 01:02:42;;;;;;;22.00;8.90;;;2.80;99.90;;;;;;5001713;28;20522;-46
2021/12/21 01:05:23;;;;;;;13.33;6.83;;;2.80;99.90;;;;;;5002715;28;20436;-49
2021/12/21 01:07:53;;;;;;;10.77;7.07;;;2.80;99.90;;;;;;5003791;28;20435;-49
2021/12/21 01:10:47;;;;;;;9.33;6.80;;;2.80;99.90;;;;;;4985437;28;20872;-46
2021/12/21 01:18:18;;;;;;;14.43;7.80;;;2.60;99.90;;;;;;5002235;28;20212;-50
2021/12/21 01:20:51;;;;;;;12.17;6.97;;;2.50;99.90;;;;;;4999952;28;20442;-50
2021/12/21 01:23:52;;;;;;;12.77;6.63;;;2.40;99.90;;;;;;4999742;28;20879;-47
2021/12/21 01:26:32;;;;;;;10.77;6.13;;;2.50;99.90;;;;;;4998512;28;20474;-48
2021/12/21 01:29:10;;;;;;;13.60;7.00;;;2.40;99.90;;;;;;4997108;28;20598;-47
2021/12/21 01:31:59;;;;;;;13.50;6.93;;;2.50;99.90;;;;;;4999228;28;20455;-51
2021/12/21 01:37:16;;;;;;;12.53;6.37;;;2.40;99.90;;;;;;5001505;28;20457;-47
2021/12/21 01:42:23;;;;;;;11.57;7.80;;;2.40;99.90;;;;;;4997769;28;20448;-46
2021/12/21 01:50:17;;;;;;;9.03;6.60;;;2.40;99.90;;;;;;5001129;28;20829;-46
2021/12/21 01:52:43;;;;;;;15.27;6.90;;;2.50;99.90;;;;;;4998206;28;21042;-46
2021/12/21 01:55:08;;;;;;;15.20;8.77;;;2.60;99.90;;;;;;4997691;28;20201;-49
2021/12/21 01:57:34;;;;;;;14.93;6.00;;;2.70;99.90;;;;;;5001039;28;20372;-47
2021/12/21 02:00:00;;;;;;;10.83;6.37;;;2.70;99.90;;;;;;4998929;28;20678;-49
2021/12/21 02:02:26;;;;;;;20.90;6.60;;;2.60;99.90;;;;;;5002032;28;20583;-46
2021/12/21 02:04:52;;;;;;;10.70;7.70;;;2.60;99.90;;;;;;4998872;28;20200;-45
2021/12/21 02:07:17;;;;;;;14.23;6.20;;;2.60;99.90;;;;;;5000407;28;20587;-46
2021/12/21 02:09:43;;;;;;;9.83;6.90;;;2.50;99.90;;;;;;4998110;28;20567;-46
2021/12/21 02:12:12;;;;;;;8.70;6.73;;;2.60;99.90;;;;;;4998721;28;20605;-45
2021/12/21 02:14:40;;;;;;;10.33;6.27;;;2.60;99.90;;;;;;4999364;28;20567;-46
2021/12/21 02:18:14;;;;;;;11.40;6.77;;;2.60;99.90;;;;;;4998399;28;20525;-48
2021/12/21 02:20:38;;;;;;;10.87;7.30;;;2.50;99.90;;;;;;4996371;28;20558;-50
2021/12/21 02:23:15;;;;;;;9.93;6.70;;;2.50;99.90;;;;;;4999031;28;20525;-48
2021/12/21 02:30:42;;;;;;;9.43;6.37;;;2.40;99.90;;;;;;4998555;28;20190;-51
2021/12/21 02:33:08;;;;;;;14.90;7.87;;;2.40;99.90;;;;;;4999981;28;20619;-50
2021/12/21 02:35:34;;;;;;;14.17;7.07;;;2.30;99.90;;;;;;4996920;28;20465;-51
2021/12/21 02:38:00;;;;;;;9.27;6.70;;;2.20;99.90;;;;;;4998659;28;20462;-51
2021/12/21 02:40:25;;;;;;;10.90;6.50;;;2.20;99.90;;;;;;4967341;28;20207;-50
2021/12/21 02:42:51;;;;;;;9.23;6.37;;;2.30;99.90;;;;;;4966452;28;20219;-49
2021/12/21 02:45:17;;;;;;;10.27;6.10;;;2.20;99.90;;;;;;4997729;28;20179;-50
2021/12/21 02:47:42;;;;;;;12.07;6.10;;;2.30;99.90;;;;;;4995970;28;20202;-52
2021/12/21 02:50:08;;;;;;;10.70;6.03;;;2.30;99.90;;;;;;5000865;28;20273;-49
2021/12/21 02:52:34;;;;;;;10.07;7.10;;;2.10;99.90;;;;;;5002478;28;20188;-51
2021/12/21 02:55:01;;;;;;;11.87;6.83;;;2.00;99.90;;;;;;4999761;28;20439;-50
2021/12/21 02:57:27;;;;;;;14.43;6.37;;;1.90;99.90;;;;;;5000155;28;20226;-49
2021/12/21 02:59:52;;;;;;;12.00;7.17;;;1.90;99.90;;;;;;4998707;28;20995;-47
2021/12/21 03:02:18;;;;;;;13.00;6.33;;;1.90;99.90;;;;;;5003029;28;20222;-50
2021/12/21 03:04:46;;;;;;;11.07;6.50;;;1.90;99.90;;;;;;4998058;28;20460;-46
2021/12/21 03:09:59;;;;;;;10.77;6.13;;;2.00;99.90;;;;;;4999374;28;20440;-48
2021/12/21 03:14:51;;;;;;;10.50;6.50;;;2.10;99.90;;;;;;4997052;28;20433;-47
2021/12/21 03:17:18;;;;;;;14.00;7.20;;;2.00;99.90;;;;;;5000860;28;20466;-51
2021/12/21 03:19:44;;;;;;;10.50;6.70;;;2.00;99.90;;;;;;4999659;28;20472;-48
2021/12/21 03:22:10;;;;;;;12.50;6.67;;;2.00;99.90;;;;;;4999673;28;20825;-50
2021/12/21 03:24:37;;;;;;;11.60;7.73;;;2.10;99.90;;;;;;5001535;28;20501;-49
2021/12/21 03:27:04;;;;;;;12.33;5.97;;;2.00;99.90;;;;;;4998736;28;20454;-47
2021/12/21 03:29:30;;;;;;;11.77;6.73;;;1.80;99.90;;;;;;5003094;28;20495;-48
2021/12/21 03:31:56;;;;;;;8.20;6.27;;;1.90;99.90;;;;;;5002848;28;20849;-50
2021/12/21 03:34:21;;;;;;;11.83;6.63;;;1.90;99.90;;;;;;5001469;28;20440;-46
2021/12/21 03:36:47;;;;;;;11.13;6.77;;;2.00;99.90;;;;;;5002211;28;20304;-47
2021/12/21 03:39:20;;;;;;;11.80;5.97;;;2.10;99.90;;;;;;4999772;28;20217;-51
2021/12/21 03:41:55;;;;;;;16.97;7.20;;;2.10;99.90;;;;;;4983965;28;20199;-51
2021/12/21 03:44:22;;;;;;;6.53;5.30;;;2.10;99.90;;;;;;5003405;28;20444;-48
2021/12/21 03:46:51;;;;;;;10.23;6.43;;;2.10;99.90;;;;;;4982558;28;20544;-51
2021/12/21 03:51:52;;;;;;;12.20;6.67;;;2.10;99.90;;;;;;5000145;28;20692;-47
2021/12/21 03:54:17;;;;;;;11.20;7.20;;;2.10;99.90;;;;;;4999773;28;20440;-49
2021/12/21 03:56:47;;;;;;;10.37;6.10;;;2.00;99.90;;;;;;5003176;28;20219;-48
2021/12/21 03:59:13;;;;;;;16.70;6.70;;;2.00;99.90;;;;;;4985662;28;20695;-50
2021/12/21 04:01:39;;;;;;;9.17;6.13;;;1.90;99.90;;;;;;5000991;28;20447;-48
2021/12/21 04:04:04;;;;;;;10.90;5.83;;;2.00;99.90;;;;;;5001311;28;20196;-50
2021/12/21 04:06:30;;;;;;;14.20;7.90;;;2.00;99.90;;;;;;5000098;28;20218;-48
2021/12/21 04:08:56;;;;;;;12.43;6.23;;;2.00;99.90;;;;;;5002033;28;20186;-49
2021/12/21 04:11:21;;;;;;;9.10;6.07;;;1.90;99.90;;;;;;5000591;28;20284;-50
2021/12/21 04:13:47;;;;;;;11.10;6.23;;;2.00;99.90;;;;;;5002977;28;20185;-47
2021/12/21 04:16:13;;;;;;;9.43;6.10;;;2.10;99.90;;;;;;4983613;28;20637;-49
2021/12/21 04:18:39;;;;;;;10.27;6.37;;;2.10;99.90;;;;;;5000751;28;21033;-50
2021/12/21 04:21:09;;;;;;;8.03;5.90;;;2.10;99.90;;;;;;4999958;28;20181;-50
2021/12/21 04:23:35;;;;;;;17.80;6.87;;;2.00;99.90;;;;;;5000689;28;20508;-50
2021/12/21 04:26:01;;;;;;;14.37;7.00;;;2.00;99.90;;;;;;5000783;28;20959;-50
2021/12/21 04:28:27;;;;;;;9.53;6.63;;;2.10;99.90;;;;;;5000154;28;20474;-48
2021/12/21 04:30:52;;;;;;;10.53;5.90;;;2.00;99.90;;;;;;5001171;28;20215;-47
2021/12/21 04:33:18;;;;;;;19.90;7.43;;;2.00;99.90;;;;;;4983331;28;20200;-48
2021/12/21 04:35:43;;;;;;;8.30;6.00;;;1.80;99.90;;;;;;4983480;28;20201;-51
2021/12/21 04:38:28;;;;;;;10.73;6.33;;;1.90;99.90;;;;;;5000292;28;20217;-48
2021/12/21 04:41:02;;;;;;;10.27;6.60;;;1.90;99.90;;;;;;5002460;28;20184;-47
2021/12/21 04:43:27;;;;;;;10.03;6.30;;;1.90;99.90;;;;;;4997504;28;20812;-47
2021/12/21 04:45:53;;;;;;;11.90;7.40;;;1.90;99.90;;;;;;5001601;28;20450;-49
2021/12/21 04:48:19;;;;;;;15.70;7.37;;;1.90;99.90;;;;;;4999463;28;20221;-49
2021/12/21 04:50:45;;;;;;;13.07;6.30;;;1.90;99.90;;;;;;4999841;28;20614;-46
2021/12/21 04:53:11;;;;;;;10.90;7.10;;;1.80;99.90;;;;;;4984486;28;20426;-47
2021/12/21 04:55:36;;;;;;;10.97;6.50;;;1.80;99.90;;;;;;4998013;28;20452;-48
2021/12/21 04:58:03;;;;;;;18.10;7.47;;;1.80;99.90;;;;;;4984594;28;21076;-47
2021/12/21 05:00:30;;;;;;;11.40;6.87;;;1.70;99.90;;;;;;4998288;28;20199;-46
2021/12/21 05:02:55;;;;;;;10.93;6.47;;;1.70;99.90;;;;;;4998103;28;20432;-46
2021/12/21 05:05:21;;;;;;;15.30;7.30;;;1.80;99.90;;;;;;4998627;28;20794;-49
2021/12/21 05:07:52;;;;;;;8.90;5.97;;;1.90;99.90;;;;;;4999438;28;20231;-48
2021/12/21 05:10:19;;;;;;;8.50;6.20;;;1.90;99.90;;;;;;4986028;28;20451;-49
2021/12/21 05:12:45;;;;;;;8.33;6.10;;;1.90;99.90;;;;;;5000748;28;20440;-51
2021/12/21 05:15:11;;;;;;;9.83;6.50;;;1.90;99.90;;;;;;5000684;28;20471;-47
2021/12/21 05:17:36;;;;;;;10.70;7.03;;;2.00;99.90;;;;;;4998603;28;20453;-47
2021/12/21 05:20:03;;;;;;;16.60;7.20;;;1.90;99.90;;;;;;4981877;28;21246;-48
2021/12/21 05:22:29;;;;;;;12.53;7.07;;;2.00;99.90;;;;;;5001289;28;20283;-48
2021/12/21 05:24:55;;;;;;;11.97;6.27;;;2.00;99.90;;;;;;4998354;28;21016;-48
2021/12/21 05:27:21;;;;;;;14.27;7.43;;;1.90;99.90;;;;;;4982078;28;20301;-47
2021/12/21 05:29:46;;;;;;;20.23;6.93;;;1.90;99.90;;;;;;5000921;28;20201;-48
2021/12/21 05:32:12;;;;;;;10.33;5.77;;;1.80;99.90;;;;;;4999517;28;20534;-46
2021/12/21 05:34:38;;;;;;;9.90;6.20;;;1.80;99.90;;;;;;5002319;28;20181;-48
2021/12/21 05:37:07;;;;;;;16.10;7.17;;;1.80;99.90;;;;;;4998648;28;20218;-47
2021/12/21 05:42:39;;;;;;;12.43;6.53;;;1.70;99.90;;;;;;4999874;28;20474;-48
2021/12/21 05:45:06;;;;;;;10.37;6.90;;;1.80;99.90;;;;;;4998943;28;20458;-47
2021/12/21 05:47:31;;;;;;;11.30;6.73;;;1.80;99.90;;;;;;5002768;28;20474;-47
2021/12/21 05:49:57;;;;;;;8.90;6.00;;;1.70;99.90;;;;;;5004248;28;20795;-47
2021/12/21 05:52:23;;;;;;;15.97;7.40;;;1.70;99.90;;;;;;5000249;28;20228;-46
2021/12/21 05:54:49;;;;;;;9.33;5.80;;;1.70;99.90;;;;;;4998978;28;21141;-47
2021/12/21 05:57:15;;;;;;;18.20;6.67;;;1.60;99.90;;;;;;5002646;28;20258;-46
2021/12/21 05:59:41;;;;;;;11.20;6.30;;;1.70;99.90;;;;;;4998259;28;20473;-48
2021/12/21 06:02:06;;;;;;;13.30;6.90;;;1.80;99.90;;;;;;5002042;28;20946;-48
2021/12/21 06:04:32;;;;;;;9.93;6.87;;;1.70;99.90;;;;;;4997685;28;20189;-47
2021/12/21 06:06:57;;;;;;;14.87;6.67;;;1.80;99.90;;;;;;5001621;28;20687;-48
2021/12/21 06:09:24;;;;;;;10.63;6.20;;;1.80;99.90;;;;;;4996042;28;20658;-47
2021/12/21 06:12:04;;;;;;;9.33;6.70;;;1.70;99.90;;;;;;5000228;28;20208;-47
2021/12/21 06:23:01;;;;;;;13.53;7.20;;;1.90;99.90;;;;;;4999199;28;20435;-47
2021/12/21 06:25:41;;;;;;;14.80;6.43;;;1.80;99.90;;;;;;5000932;28;20444;-48
2021/12/21 06:28:09;;;;;;;11.37;7.27;;;1.80;99.90;;;;;;5001785;28;20935;-46
2021/12/21 06:30:37;;;;;;;13.27;7.50;;;1.70;99.90;;;;;;5002245;28;20438;-48
2021/12/21 06:33:04;;;;;;;12.03;7.70;;;1.80;99.90;;;;;;4997775;28;20445;-49
2021/12/21 06:35:30;;;;;;;11.57;6.53;;;1.70;99.90;;;;;;5000726;28;20512;-48
2021/12/21 06:37:56;;;;;;;10.67;6.23;;;1.80;99.90;;;;;;4981890;28;20800;-48
2021/12/21 06:40:22;;;;;;;12.60;7.27;;;1.80;99.90;;;;;;5002161;28;20486;-50
2021/12/21 06:42:50;;;;;;;8.43;6.17;;;1.80;99.90;;;;;;4997896;28;20447;-47
2021/12/21 06:45:43;;;;;;;8.50;6.10;;;1.70;99.90;;;;;;4997446;28;20458;-49
2021/12/21 06:53:41;;;;;;;15.23;6.20;;;1.80;99.90;;;;;;4998646;28;20431;-48
2021/12/21 06:56:10;;;;;;;14.00;6.80;;;1.70;99.90;;;;;;4999561;28;20475;-48
2021/12/21 06:58:36;;;;;;;20.33;7.30;;;1.70;99.90;;;;;;5000177;28;20465;-47
2021/12/21 07:01:04;;;;;;;7.80;5.57;;;1.60;99.90;;;;;;4996613;28;20549;-47
2021/12/21 07:03:29;;;;;;;13.37;7.00;;;1.60;99.90;;;;;;5002698;28;20448;-51
2021/12/21 07:06:04;;;;;;;13.97;6.80;;;1.60;99.90;;;;;;5000709;28;20458;-48
2021/12/21 07:08:33;;;;;;;10.27;6.57;;;1.60;99.90;;;;;;4985005;28;20782;-48
2021/12/21 07:19:05;;;;;;;16.10;6.70;;;1.70;99.90;;;;;;5002527;28;20469;-48
2021/12/21 07:21:30;;;;;;;16.60;7.30;;;1.60;99.90;;;;;;5000367;28;20527;-50
2021/12/21 07:23:56;;;;;;;12.33;8.00;;;1.70;99.90;;;;;;5001967;28;20190;-48
2021/12/21 07:26:22;;;;;;;8.90;5.70;;;1.70;99.90;;;;;;5000503;28;20211;-51
2021/12/21 07:28:47;;;;;;;8.80;6.13;;;1.60;99.90;;;;;;5003527;28;20194;-46
2021/12/21 07:31:13;;;;;;;12.53;7.10;;;1.50;99.90;;;;;;5002075;28;20692;-51
2021/12/21 07:33:39;;;;;;;11.40;7.10;;;1.60;99.90;;;;;;4981098;28;20615;-50
2021/12/21 07:36:05;;;;;;;16.17;6.90;;;1.70;99.90;;;;;;4999992;28;20471;-48
2021/12/21 07:38:32;;;;;;;16.03;7.00;;;1.70;99.90;;;;;;5002439;28;20213;-57
2021/12/21 07:40:58;;;;;;;11.37;6.67;;;1.60;99.90;;;;;;5001636;28;20955;-48
2021/12/21 07:43:24;;;;;;;9.50;6.87;;;1.60;99.90;;;;;;5000833;28;20435;-49
2021/12/21 07:45:51;;;;;;;9.77;6.83;;;1.50;99.90;;;;;;4984092;28;21236;-47
2021/12/21 07:48:17;;;;;;;11.67;7.63;;;1.40;99.90;;;;;;5003277;28;20938;-50
2021/12/21 07:50:45;;;;;;;10.30;6.53;;;1.40;99.90;;;;;;4999181;28;20551;-49
2021/12/21 07:53:11;;;;;;;13.23;8.03;;;1.40;99.90;;;;;;5001864;28;20455;-46
2021/12/21 07:55:37;;;;;;;14.10;7.20;;;1.40;99.90;;;;;;4998628;28;20470;-47
2021/12/21 07:58:02;;;;;;;28.23;13.70;;;1.40;99.90;;;;;;4998711;28;21652;-51
2021/12/21 08:00:28;;;;;;;22.33;10.30;;;1.50;99.90;;;;;;5001817;28;20268;-52
2021/12/21 08:02:54;;;;;;;14.27;8.23;;;1.70;99.90;;;;;;5001758;28;20192;-51
2021/12/21 08:05:21;;;;;;;12.23;7.97;;;1.70;99.90;;;;;;5000920;28;20190;-51
2021/12/21 08:07:55;;;;;;;16.27;7.77;;;1.70;99.90;;;;;;5000217;28;20527;-49
2021/12/21 08:10:30;;;;;;;12.67;8.43;;;1.80;99.90;;;;;;5001683;28;20442;-48
2021/12/21 08:12:57;;;;;;;19.53;9.27;;;1.80;99.90;;;;;;4998094;28;20441;-50
2021/12/21 08:15:24;;;;;;;19.00;9.27;;;1.80;99.90;;;;;;4998272;28;20434;-50
2021/12/21 08:17:49;;;;;;;13.50;9.93;;;1.80;99.90;;;;;;4997098;28;20468;-48
2021/12/21 08:20:16;;;;;;;20.93;10.40;;;1.80;99.90;;;;;;5000995;28;20473;-47
2021/12/21 08:22:42;;;;;;;19.40;9.93;;;1.80;99.90;;;;;;4998412;28;20187;-49
2021/12/21 08:25:08;;;;;;;14.20;8.60;;;1.90;99.90;;;;;;4998912;28;20439;-47
2021/12/21 08:27:34;;;;;;;23.47;11.40;;;1.90;99.90;;;;;;4998927;28;20593;-49
2021/12/21 08:30:00;;;;;;;15.93;9.30;;;1.90;99.90;;;;;;4998559;28;20429;-50
2021/12/21 08:32:25;;;;;;;14.50;8.87;;;1.90;99.90;;;;;;5001432;28;20476;-48
2021/12/21 08:34:51;;;;;;;13.80;8.93;;;1.90;99.90;;;;;;5001201;28;20580;-50
2021/12/21 08:37:17;;;;;;;12.53;9.30;;;1.90;99.90;;;;;;5001102;28;20670;-49
2021/12/21 08:39:42;;;;;;;11.83;8.40;;;1.90;99.90;;;;;;4979399;28;20209;-48
2021/12/21 08:42:13;;;;;;;19.60;9.20;;;2.00;99.90;;;;;;4996591;28;20196;-49
2021/12/21 08:44:47;;;;;;;16.23;8.57;;;2.00;99.90;;;;;;5001534;28;21231;-49
2021/12/21 08:47:14;;;;;;;9.63;8.00;;;2.10;99.90;;;;;;4995388;28;20548;-48
2021/12/21 08:49:40;;;;;;;11.40;7.40;;;2.10;99.90;;;;;;5001188;28;20525;-49
2021/12/21 08:52:06;;;;;;;10.13;7.50;;;2.10;99.90;;;;;;4997513;28;20887;-49
2021/12/21 08:54:32;;;;;;;13.63;9.10;;;2.10;99.90;;;;;;4999928;28;20203;-49
2021/12/21 08:56:57;;;;;;;18.83;10.57;;;2.20;99.90;;;;;;4998765;28;20847;-48
2021/12/21 08:59:23;;;;;;;17.37;9.87;;;2.20;99.90;;;;;;5002205;28;20215;-52
2021/12/21 09:01:51;;;;;;;17.43;8.53;;;2.20;99.90;;;;;;4997374;28;20193;-53
2021/12/21 09:04:19;;;;;;;15.97;11.00;;;2.20;99.90;;;;;;4998193;28;20188;-52
2021/12/21 09:06:45;;;;;;;15.00;7.50;;;2.20;99.90;;;;;;4995710;28;21042;-46
2021/12/21 09:09:10;;;;;;;8.80;6.30;;;2.20;99.90;;;;;;4998947;28;20439;-49
2021/12/21 09:11:37;;;;;;;13.00;7.70;;;2.10;99.90;;;;;;4985078;28;20207;-47
2021/12/21 09:14:03;;;;;;;11.27;7.87;;;2.00;99.90;;;;;;5000326;28;20197;-47
2021/12/21 09:16:29;;;;;;;12.40;7.70;;;2.10;99.90;;;;;;4999750;28;21031;-47
2021/12/21 09:18:55;;;;;;;17.60;7.53;;;2.00;99.90;;;;;;4998156;28;20622;-52
2021/12/21 09:21:21;;;;;;;11.40;7.77;;;2.10;99.90;;;;;;5001483;28;20651;-51
2021/12/21 09:23:46;;;;;;;12.50;8.17;;;2.10;99.90;;;;;;5002233;28;20434;-46
2021/12/21 09:26:12;;;;;;;10.80;7.70;;;2.20;99.90;;;;;;5000272;28;20231;-48
2021/12/21 09:28:38;;;;;;;13.13;8.10;;;2.10;99.90;;;;;;5001370;28;20195;-51
2021/12/21 09:31:04;;;;;;;15.50;8.70;;;2.10;99.90;;;;;;4998887;28;20428;-51
2021/12/21 09:33:29;;;;;;;13.73;8.17;;;2.20;99.90;;;;;;5001023;28;20238;-50
2021/12/21 09:35:55;;;;;;;19.67;7.60;;;2.30;99.90;;;;;;4997646;28;20670;-48
2021/12/21 09:38:21;;;;;;;12.83;9.00;;;2.30;99.90;;;;;;4996260;28;20227;-48
2021/12/21 09:40:46;;;;;;;10.40;7.70;;;2.40;99.90;;;;;;4997055;28;20640;-51
2021/12/21 09:43:12;;;;;;;13.03;8.43;;;2.40;99.90;;;;;;4999023;28;20240;-47
2021/12/21 09:45:39;;;;;;;12.67;7.93;;;2.30;99.90;;;;;;4998642;28;20292;-47
2021/12/21 09:48:05;;;;;;;18.70;10.07;;;2.40;99.90;;;;;;4997973;28;20930;-47
2021/12/21 09:50:34;;;;;;;12.50;9.20;;;2.40;99.90;;;;;;5000106;28;20444;-46
2021/12/21 09:53:00;;;;;;;19.80;9.93;;;2.40;99.90;;;;;;4999596;28;20430;-46
2021/12/21 09:55:29;;;;;;;12.73;7.67;;;2.50;99.90;;;;;;4983795;28;20816;-49
2021/12/21 09:57:55;;;;;;;15.60;8.30;;;2.50;99.90;;;;;;4997594;28;20230;-48
2021/12/21 10:00:24;;;;;;;11.97;8.60;;;2.60;99.90;;;;;;4997092;28;20765;-47
2021/12/21 10:02:50;;;;;;;13.80;7.70;;;2.70;99.90;;;;;;4996861;28;20864;-46
2021/12/21 10:05:19;;;;;;;11.20;7.90;;;2.70;99.90;;;;;;5000747;28;20960;-47
2021/12/21 10:07:55;;;;;;;10.77;7.13;;;2.60;99.90;;;;;;5001683;28;20428;-48
2021/12/21 10:10:21;;;;;;;9.93;6.97;;;2.60;99.90;;;;;;4997283;28;20458;-47
2021/12/21 10:12:48;;;;;;;10.30;7.87;;;2.60;99.90;;;;;;4999595;28;20449;-52
2021/12/21 10:15:16;;;;;;;13.60;8.10;;;2.70;99.90;;;;;;4999537;28;20190;-55
2021/12/21 10:17:57;;;;;;;10.70;7.20;;;2.70;99.90;;;;;;4998172;28;20478;-51
2021/12/21 10:20:36;;;;;;;9.50;8.07;;;2.80;99.90;;;;;;4999580;28;20479;-53
2021/12/21 10:23:19;;;;;;;8.47;6.97;;;2.70;99.90;;;;;;4999750;28;20998;-52
2021/12/21 10:25:49;;;;;;;9.87;7.57;;;2.80;99.90;;;;;;5000438;28;20469;-52
2021/12/21 10:28:29;;;;;;;9.60;6.93;;;2.70;99.90;;;;;;4999982;28;20965;-55
2021/12/21 10:30:56;;;;;;;14.10;7.40;;;2.70;99.90;;;;;;4998464;28;20432;-54
2021/12/21 10:33:24;;;;;;;12.73;7.40;;;2.70;99.90;;;;;;4999733;28;20449;-53
2021/12/21 10:35:52;;;;;;;10.30;6.90;;;2.90;99.90;;;;;;4998460;28;20464;-55
2021/12/21 10:38:29;;;;;;;23.47;9.00;;;3.00;99.90;;;;;;4996009;28;20464;-55
2021/12/21 10:41:05;;;;;;;13.63;6.87;;;2.90;99.90;;;;;;4975970;28;20436;-52
2021/12/21 10:43:31;;;;;;;10.40;6.83;;;2.90;99.90;;;;;;4994862;28;20969;-54
2021/12/21 10:45:57;;;;;;;9.43;6.00;;;3.00;99.90;;;;;;4991756;28;20502;-50
2021/12/21 10:48:23;;;;;;;9.50;7.10;;;3.00;99.90;;;;;;5001153;28;20253;-53
2021/12/21 10:50:49;;;;;;;13.53;6.97;;;3.10;99.90;;;;;;4997188;28;20982;-53
2021/12/21 10:53:24;;;;;;;11.00;6.27;;;3.00;99.90;;;;;;4999103;28;20455;-55
2021/12/21 10:56:22;;;;;;;11.00;7.70;;;3.10;99.90;;;;;;4978967;28;20556;-53
2021/12/21 10:58:47;;;;;;;11.90;6.90;;;3.20;99.90;;;;;;4939441;28;20816;-53
2021/12/21 11:01:20;;;;;;;9.90;5.53;;;3.20;99.90;;;;;;4998997;28;20474;-52
2021/12/21 11:03:52;;;;;;;7.60;5.80;;;3.30;99.90;;;;;;4999048;28;20272;-55
2021/12/21 11:06:32;;;;;;;7.20;5.80;;;3.30;99.90;;;;;;4997025;28;20452;-55
2021/12/21 11:08:58;;;;;;;9.63;5.70;;;3.30;99.90;;;;;;4999509;28;21008;-51
2021/12/21 11:11:29;;;;;;;9.63;6.53;;;3.30;99.90;;;;;;4997749;28;20436;-51
2021/12/21 11:14:03;;;;;;;9.60;7.50;;;3.30;99.90;;;;;;4997215;28;20475;-54
2021/12/21 11:16:37;;;;;;;9.17;5.67;;;3.40;99.90;;;;;;4999267;28;20466;-54
2021/12/21 11:19:04;;;;;;;8.33;5.87;;;3.40;99.90;;;;;;4997680;28;20991;-50
2021/12/21 11:21:31;;;;;;;13.27;7.30;;;3.40;99.90;;;;;;5001554;28;20865;-54
2021/12/21 11:24:04;;;;;;;12.27;6.60;;;3.50;99.90;;;;;;4981450;28;20527;-55
2021/12/21 11:26:31;;;;;;;11.40;7.87;;;3.50;99.90;;;;;;4998826;28;20456;-53
2021/12/21 11:29:04;;;;;;;8.03;6.67;;;3.60;99.90;;;;;;5001308;28;20444;-55
2021/12/21 11:31:32;;;;;;;7.30;6.20;;;3.60;99.90;;;;;;4998557;28;20444;-49
2021/12/21 11:33:59;;;;;;;13.03;7.10;;;3.60;99.90;;;;;;4996766;28;20520;-52
2021/12/21 11:39:12;;;;;;;10.70;6.53;;;3.90;99.90;;;;;;4998461;28;20525;-54
2021/12/21 11:41:42;;;;;;;9.07;7.43;;;3.90;99.90;;;;;;5000525;28;20451;-54
2021/12/21 11:44:27;;;;;;;9.03;6.17;;;4.10;99.90;;;;;;4996545;28;20448;-53
2021/12/21 11:47:01;;;;;;;13.80;6.40;;;4.10;99.90;;;;;;5000953;28;20459;-52
2021/12/21 11:49:33;;;;;;;11.70;6.90;;;4.20;99.90;;;;;;5005431;28;20436;-52
2021/12/21 11:52:28;;;;;;;9.50;5.70;;;4.70;99.90;;;;;;5004347;28;20497;-52
2021/12/21 11:54:57;;;;;;;9.47;6.43;;;5.70;99.90;;;;;;5001535;28;20539;-52
2021/12/21 11:57:39;;;;;;;11.80;7.13;;;6.60;99.90;;;;;;4986803;28;20998;-55
2021/12/21 12:00:18;;;;;;;11.07;6.60;;;7.00;99.90;;;;;;5005407;28;20557;-54
2021/12/21 12:02:46;;;;;;;8.53;6.30;;;7.80;99.90;;;;;;4989474;28;20447;-54
2021/12/21 12:05:18;;;;;;;9.40;5.77;;;8.20;99.90;;;;;;5003680;28;20436;-53
2021/12/21 12:07:44;;;;;;;9.47;6.00;;;7.80;99.90;;;;;;5003162;28;20463;-52
2021/12/21 12:10:13;;;;;;;8.73;5.73;;;7.80;99.90;;;;;;5004007;28;20476;-55
2021/12/21 12:12:39;;;;;;;9.60;6.13;;;7.50;99.90;;;;;;5002902;28;21092;-55
2021/12/21 12:15:08;;;;;;;10.23;6.30;;;7.30;99.90;;;;;;5000847;28;20454;-53
2021/12/21 12:17:45;;;;;;;11.57;6.00;;;7.60;99.90;;;;;;4985275;28;20518;-54
2021/12/21 12:20:11;;;;;;;7.30;4.90;;;8.60;99.90;;;;;;4988713;28;20469;-54
2021/12/21 12:22:40;;;;;;;8.93;5.47;;;9.90;99.90;;;;;;5000026;28;20531;-54
2021/12/21 12:25:08;;;;;;;7.50;5.87;;;11.20;99.90;;;;;;5003664;28;20643;-55
2021/12/21 12:27:43;;;;;;;6.70;5.17;;;12.40;99.90;;;;;;5001958;28;20456;-56
2021/12/21 12:30:16;;;;;;;8.03;5.13;;;13.40;99.90;;;;;;5003202;28;20455;-52
2021/12/21 12:32:52;;;;;;;7.43;6.30;;;14.30;97.30;;;;;;4998765;28;20468;-53
2021/12/21 12:35:21;;;;;;;9.17;6.83;;;15.00;93.90;;;;;;4982161;28;20444;-50
2021/12/21 12:38:02;;;;;;;7.93;5.27;;;15.60;91.20;;;;;;5003524;28;20444;-53
2021/12/21 12:40:47;;;;;;;9.80;6.30;;;16.10;85.30;;;;;;5001807;28;20475;-52
2021/12/21 12:43:18;;;;;;;6.67;5.30;;;16.30;81.00;;;;;;4998761;28;20440;-55
2021/12/21 12:45:54;;;;;;;5.53;4.67;;;16.80;77.50;;;;;;5003355;28;20448;-55
2021/12/21 12:48:38;;;;;;;8.50;5.30;;;16.70;71.80;;;;;;5002910;28;20496;-51
2021/12/21 12:51:05;;;;;;;11.17;5.90;;;17.10;72.00;;;;;;4998305;28;20435;-53
2021/12/21 12:53:42;;;;;;;8.53;6.33;;;17.00;66.30;;;;;;5001999;28;21054;-53
2021/12/21 12:56:09;;;;;;;8.77;5.43;;;17.00;67.10;;;;;;4993924;28;20460;-53
2021/12/21 12:58:35;;;;;;;6.07;5.10;;;17.10;66.50;;;;;;4999335;28;20520;-53
2021/12/21 13:01:06;;;;;;;6.83;6.13;;;16.60;64.30;;;;;;4990471;28;20455;-55
2021/12/21 13:03:38;;;;;;;10.10;5.23;;;16.90;64.50;;;;;;4999864;28;20424;-56
2021/12/21 13:06:36;;;;;;;7.33;5.30;;;17.10;63.40;;;;;;4997340;28;20447;-52
2021/12/21 13:09:08;;;;;;;7.03;4.97;;;16.70;63.00;;;;;;4995262;28;20439;-57
2021/12/21 13:11:35;;;;;;;12.53;9.37;;;16.90;62.80;;;;;;4999251;28;20428;-54
2021/12/21 13:14:01;;;;;;;7.27;5.10;;;16.70;62.20;;;;;;5003978;28;20425;-53
2021/12/21 13:16:33;;;;;;;6.97;6.27;;;16.20;61.00;;;;;;4995965;28;20487;-53
2021/12/21 13:19:05;;;;;;;8.10;6.13;;;14.80;63.00;;;;;;4977906;28;21019;-55
2021/12/21 13:21:33;;;;;;;11.30;7.20;;;13.60;65.90;;;;;;4999751;28;20420;-55
2021/12/21 13:24:06;;;;;;;12.80;7.07;;;13.10;68.10;;;;;;4995039;28;20818;-55
2021/12/21 13:26:54;;;;;;;8.83;6.60;;;12.40;69.20;;;;;;4997668;28;20988;-55
2021/12/21 13:29:23;;;;;;;7.63;5.53;;;11.90;72.00;;;;;;4996264;28;20466;-54
2021/12/21 13:31:54;;;;;;;5.53;4.67;;;11.40;73.40;;;;;;5000585;28;20790;-55
2021/12/21 13:34:21;;;;;;;6.93;5.13;;;11.20;75.00;;;;;;4996263;28;20455;-53
2021/12/21 13:37:00;;;;;;;8.07;5.80;;;10.60;75.80;;;;;;4996236;28;20475;-56
2021/12/21 13:39:39;;;;;;;8.60;6.37;;;10.40;77.80;;;;;;4978923;28;20517;-53
2021/12/21 13:42:08;;;;;;;13.03;6.47;;;10.20;79.00;;;;;;5000645;28;20810;-54
2021/12/21 13:44:40;;;;;;;8.60;5.87;;;9.80;81.70;;;;;;4997064;28;20421;-55
2021/12/21 13:47:18;;;;;;;6.73;5.83;;;9.60;83.00;;;;;;4999937;28;20981;-54
2021/12/21 13:50:04;;;;;;;9.57;6.33;;;9.20;84.70;;;;;;4996983;28;20433;-54
2021/12/21 13:52:35;;;;;;;8.07;6.17;;;8.80;85.30;;;;;;4999574;28;20477;-52
2021/12/21 13:55:03;;;;;;;8.53;5.67;;;8.80;86.90;;;;;;4999558;28;20493;-54
2021/12/21 13:57:29;;;;;;;12.00;7.80;;;8.70;87.30;;;;;;4991247;28;20463;-55
2021/12/21 13:59:57;;;;;;;7.50;5.40;;;8.30;89.50;;;;;;4986024;28;20972;-55
2021/12/21 14:02:36;;;;;;;11.10;5.70;;;8.30;90.00;;;;;;4982635;28;20177;-53
2021/12/21 14:05:07;;;;;;;6.63;5.50;;;8.30;90.30;;;;;;4994829;28;20978;-55